sensor_id;sensor_type;location;lat;lon;timestamp;pressure;altitude;pressure_sealevel;temperature;humidity
69257;BME280;56376;53.356;-1.748;2022-07-23T00:01:22;99800.47;;;14.97;99.61
69257;BME280;56376;53.356;-1.748;2022-07-23T00:03:48;99796.16;;;14.96;99.64
69257;BME280;56376;53.356;-1.748;2022-07-23T00:06:14;99788.25;;;14.96;99.58
69257;BME280;56376;53.356;-1.748;2022-07-23T00:08:40;99795.28;;;14.95;99.50
69257;BME280;56376;53.356;-1.748;2022-07-23T00:11:06;99796.16;;;14.96;99.54
69257;BME280;56376;53.356;-1.748;2022-07-23T00:13:31;99790.94;;;14.94;99.38
69257;BME280;56376;53.356;-1.748;2022-07-23T00:15:57;99795.38;;;14.93;99.14
69257;BME280;56376;53.356;-1.748;2022-07-23T00:18:22;99791.88;;;14.93;99.12
69257;BME280;56376;53.356;-1.748;2022-07-23T00:20:48;99787.56;;;14.92;99.08
69257;BME280;56376;53.356;-1.748;2022-07-23T00:23:13;99788.41;;;14.92;99.08
69257;BME280;56376;53.356;-1.748;2022-07-23T00:25:39;99785.84;;;14.91;98.95
69257;BME280;56376;53.356;-1.748;2022-07-23T00:28:04;99791.25;;;14.88;98.91
69257;BME280;56376;53.356;-1.748;2022-07-23T00:30:31;99785.22;;;14.86;99.45
69257;BME280;56376;53.356;-1.748;2022-07-23T00:33:02;99787.84;;;14.86;99.62
69257;BME280;56376;53.356;-1.748;2022-07-23T00:35:30;99778.28;;;14.85;99.69
69257;BME280;56376;53.356;-1.748;2022-07-23T00:37:56;99781.81;;;14.84;99.91
69257;BME280;56376;53.356;-1.748;2022-07-23T00:40:22;99780.91;;;14.85;100.00
69257;BME280;56376;53.356;-1.748;2022-07-23T00:42:48;99774.81;;;14.84;100.00
69257;BME280;56376;53.356;-1.748;2022-07-23T00:45:14;99771.22;;;14.85;100.00
69257;BME280;56376;53.356;-1.748;2022-07-23T00:47:39;99768.66;;;14.84;100.00
69257;BME280;56376;53.356;-1.748;2022-07-23T00:50:08;99772.19;;;14.84;100.00
69257;BME280;56376;53.356;-1.748;2022-07-23T00:52:35;99773.94;;;14.84;100.00
69257;BME280;56376;53.356;-1.748;2022-07-23T00:55:01;99773.09;;;14.83;100.00
69257;BME280;56376;53.356;-1.748;2022-07-23T00:57:27;99766.97;;;14.83;100.00
69257;BME280;56376;53.356;-1.748;2022-07-23T00:59:52;99767.81;;;14.83;100.00
69257;BME280;56376;53.356;-1.748;2022-07-23T01:02:18;99766.13;;;14.82;100.00
69257;BME280;56376;53.356;-1.748;2022-07-23T01:04:43;99770.56;;;14.82;100.00
69257;BME280;56376;53.356;-1.748;2022-07-23T01:07:09;99766.19;;;14.81;100.00
69257;BME280;56376;53.356;-1.748;2022-07-23T01:09:35;99766.19;;;14.81;100.00
69257;BME280;56376;53.356;-1.748;2022-07-23T01:12:01;99750.34;;;14.82;100.00
69257;BME280;56376;53.356;-1.748;2022-07-23T01:14:28;99760.88;;;14.82;100.00
69257;BME280;56376;53.356;-1.748;2022-07-23T01:16:53;99757.47;;;14.80;100.00
69257;BME280;56376;53.356;-1.748;2022-07-23T01:19:18;99754.00;;;14.80;100.00
69257;BME280;56376;53.356;-1.748;2022-07-23T01:21:48;99754.91;;;14.79;100.00
69257;BME280;56376;53.356;-1.748;2022-07-23T01:24:14;99753.16;;;14.79;100.00
69257;BME280;56376;53.356;-1.748;2022-07-23T01:26:43;99753.16;;;14.79;100.00
69257;BME280;56376;53.356;-1.748;2022-07-23T01:29:08;99751.53;;;14.77;100.00
69257;BME280;56376;53.356;-1.748;2022-07-23T01:31:34;99743.69;;;14.75;100.00
69257;BME280;56376;53.356;-1.748;2022-07-23T01:33:59;99757.69;;;14.76;100.00
69257;BME280;56376;53.356;-1.748;2022-07-23T01:36:25;99758.63;;;14.75;100.00
69257;BME280;56376;53.356;-1.748;2022-07-23T01:38:50;99752.53;;;14.74;100.00
69257;BME280;56376;53.356;-1.748;2022-07-23T01:41:16;99753.50;;;14.71;100.00
69257;BME280;56376;53.356;-1.748;2022-07-23T01:43:41;99751.81;;;14.70;100.00
69257;BME280;56376;53.356;-1.748;2022-07-23T01:46:07;99744.00;;;14.69;100.00
69257;BME280;56376;53.356;-1.748;2022-07-23T01:48:32;99746.72;;;14.67;100.00
69257;BME280;56376;53.356;-1.748;2022-07-23T01:50:58;99750.25;;;14.66;100.00
69257;BME280;56376;53.356;-1.748;2022-07-23T01:53:23;99748.56;;;14.65;100.00
69257;BME280;56376;53.356;-1.748;2022-07-23T01:55:49;99748.63;;;14.64;100.00
69257;BME280;56376;53.356;-1.748;2022-07-23T01:58:14;99741.63;;;14.64;100.00
69257;BME280;56376;53.356;-1.748;2022-07-23T02:00:40;99737.19;;;14.65;100.00
69257;BME280;56376;53.356;-1.748;2022-07-23T02:03:05;99737.19;;;14.65;100.00
69257;BME280;56376;53.356;-1.748;2022-07-23T02:05:31;99738.19;;;14.62;100.00
69257;BME280;56376;53.356;-1.748;2022-07-23T02:08:00;99742.63;;;14.62;100.00
69257;BME280;56376;53.356;-1.748;2022-07-23T02:10:26;99742.63;;;14.62;100.00
69257;BME280;56376;53.356;-1.748;2022-07-23T02:12:51;99743.53;;;14.61;100.00
69257;BME280;56376;53.356;-1.748;2022-07-23T02:15:17;99744.47;;;14.60;100.00
69257;BME280;56376;53.356;-1.748;2022-07-23T02:17:42;99736.63;;;14.58;100.00
69257;BME280;56376;53.356;-1.748;2022-07-23T02:20:09;99734.94;;;14.57;100.00
69257;BME280;56376;53.356;-1.748;2022-07-23T02:22:34;99733.31;;;14.55;100.00
69257;BME280;56376;53.356;-1.748;2022-07-23T02:25:01;99728.97;;;14.54;100.00
69257;BME280;56376;53.356;-1.748;2022-07-23T02:27:27;99729.03;;;14.52;100.00
69257;BME280;56376;53.356;-1.748;2022-07-23T02:29:53;99728.25;;;14.50;100.00
69257;BME280;56376;53.356;-1.748;2022-07-23T02:32:20;99734.56;;;14.46;100.00
69257;BME280;56376;53.356;-1.748;2022-07-23T02:34:47;99743.47;;;14.43;100.00
69257;BME280;56376;53.356;-1.748;2022-07-23T02:37:12;99736.69;;;14.39;100.00
69257;BME280;56376;53.356;-1.748;2022-07-23T02:39:38;99726.44;;;14.33;100.00
69257;BME280;56376;53.356;-1.748;2022-07-23T02:42:03;99717.94;;;14.28;100.00
69257;BME280;56376;53.356;-1.748;2022-07-23T02:44:29;99726.13;;;14.22;99.80
69257;BME280;56376;53.356;-1.748;2022-07-23T02:46:54;99727.19;;;14.18;99.49
69257;BME280;56376;53.356;-1.748;2022-07-23T02:49:20;99716.00;;;14.14;99.01
69257;BME280;56376;53.356;-1.748;2022-07-23T02:51:45;99725.78;;;14.11;98.43
69257;BME280;56376;53.356;-1.748;2022-07-23T02:54:11;99730.41;;;14.05;98.00
69257;BME280;56376;53.356;-1.748;2022-07-23T02:56:36;99729.59;;;14.03;98.18
69257;BME280;56376;53.356;-1.748;2022-07-23T02:59:02;99736.75;;;14.01;98.17
69257;BME280;56376;53.356;-1.748;2022-07-23T03:01:27;99736.78;;;14.00;98.31
69257;BME280;56376;53.356;-1.748;2022-07-23T03:03:52;99729.06;;;13.97;98.40
69257;BME280;56376;53.356;-1.748;2022-07-23T03:06:18;99731.75;;;13.95;98.78
69257;BME280;56376;53.356;-1.748;2022-07-23T03:08:43;99730.84;;;13.96;99.08
69257;BME280;56376;53.356;-1.748;2022-07-23T03:11:09;99732.59;;;13.96;99.30
69257;BME280;56376;53.356;-1.748;2022-07-23T03:13:40;99738.72;;;13.96;99.68
69257;BME280;56376;53.356;-1.748;2022-07-23T03:16:06;99738.63;;;13.98;99.86
69257;BME280;56376;53.356;-1.748;2022-07-23T03:18:32;99735.84;;;14.01;100.00
69257;BME280;56376;53.356;-1.748;2022-07-23T03:20:58;99732.31;;;14.02;100.00
69257;BME280;56376;53.356;-1.748;2022-07-23T03:23:24;99729.75;;;14.00;100.00
69257;BME280;56376;53.356;-1.748;2022-07-23T03:25:49;99726.34;;;13.98;100.00
69257;BME280;56376;53.356;-1.748;2022-07-23T03:28:16;99721.97;;;13.99;100.00
69257;BME280;56376;53.356;-1.748;2022-07-23T03:30:45;99723.72;;;13.98;100.00
69257;BME280;56376;53.356;-1.748;2022-07-23T03:33:18;99715.00;;;13.98;100.00
69257;BME280;56376;53.356;-1.748;2022-07-23T03:35:45;99714.22;;;13.96;100.00
69257;BME280;56376;53.356;-1.748;2022-07-23T03:38:11;99710.75;;;13.95;100.00
69257;BME280;56376;53.356;-1.748;2022-07-23T03:40:36;99715.16;;;13.95;100.00
69257;BME280;56376;53.356;-1.748;2022-07-23T03:43:02;99719.63;;;13.93;100.00
69257;BME280;56376;53.356;-1.748;2022-07-23T03:45:28;99725.72;;;13.93;100.00
69257;BME280;56376;53.356;-1.748;2022-07-23T03:47:53;99721.34;;;13.94;100.00
69257;BME280;56376;53.356;-1.748;2022-07-23T03:50:19;99725.72;;;13.93;100.00
69257;BME280;56376;53.356;-1.748;2022-07-23T03:52:45;99724.03;;;13.92;100.00
69257;BME280;56376;53.356;-1.748;2022-07-23T03:55:10;99722.34;;;13.91;100.00
69257;BME280;56376;53.356;-1.748;2022-07-23T03:57:36;99721.47;;;13.91;100.00
69257;BME280;56376;53.356;-1.748;2022-07-23T04:00:03;99718.00;;;13.90;100.00
69257;BME280;56376;53.356;-1.748;2022-07-23T04:02:30;99725.03;;;13.90;100.00
69257;BME280;56376;53.356;-1.748;2022-07-23T04:04:56;99716.31;;;13.89;100.00
69257;BME280;56376;53.356;-1.748;2022-07-23T04:07:21;99710.97;;;13.91;100.00
69257;BME280;56376;53.356;-1.748;2022-07-23T04:09:47;99715.31;;;13.92;100.00
69257;BME280;56376;53.356;-1.748;2022-07-23T04:12:13;99712.75;;;13.90;100.00
69257;BME280;56376;53.356;-1.748;2022-07-23T04:14:38;99711.09;;;13.88;100.00
69257;BME280;56376;53.356;-1.748;2022-07-23T04:17:04;99706.00;;;13.84;100.00
69257;BME280;56376;53.356;-1.748;2022-07-23T04:19:29;99714.72;;;13.85;100.00
69257;BME280;56376;53.356;-1.748;2022-07-23T04:21:56;99712.19;;;13.83;100.00
69257;BME280;56376;53.356;-1.748;2022-07-23T04:24:21;99709.69;;;13.80;100.00
69257;BME280;56376;53.356;-1.748;2022-07-23T04:26:47;99709.78;;;13.79;100.00
69257;BME280;56376;53.356;-1.748;2022-07-23T04:29:12;99703.75;;;13.77;100.00
69257;BME280;56376;53.356;-1.748;2022-07-23T04:31:38;99706.44;;;13.75;100.00
69257;BME280;56376;53.356;-1.748;2022-07-23T04:34:03;99704.75;;;13.74;100.00
69257;BME280;56376;53.356;-1.748;2022-07-23T04:36:29;99706.56;;;13.72;99.53
69257;BME280;56376;53.356;-1.748;2022-07-23T04:38:55;99703.31;;;13.67;99.31
69257;BME280;56376;53.356;-1.748;2022-07-23T04:41:20;99708.78;;;13.62;99.22
69257;BME280;56376;53.356;-1.748;2022-07-23T04:43:46;99704.50;;;13.60;98.98
69257;BME280;56376;53.356;-1.748;2022-07-23T04:46:11;99698.47;;;13.58;98.94
69257;BME280;56376;53.356;-1.748;2022-07-23T04:48:37;99708.28;;;13.54;98.75
69257;BME280;56376;53.356;-1.748;2022-07-23T04:51:02;99715.31;;;13.54;98.93
69257;BME280;56376;53.356;-1.748;2022-07-23T04:53:28;99717.13;;;13.52;98.95
69257;BME280;56376;53.356;-1.748;2022-07-23T04:55:54;99707.50;;;13.52;99.02
69257;BME280;56376;53.356;-1.748;2022-07-23T04:58:19;99714.50;;;13.52;99.42
69257;BME280;56376;53.356;-1.748;2022-07-23T05:00:45;99708.44;;;13.51;99.57
69257;BME280;56376;53.356;-1.748;2022-07-23T05:03:11;99711.88;;;13.52;99.76
69257;BME280;56376;53.356;-1.748;2022-07-23T05:05:37;99708.34;;;13.53;100.00
69257;BME280;56376;53.356;-1.748;2022-07-23T05:08:02;99710.91;;;13.54;100.00
69257;BME280;56376;53.356;-1.748;2022-07-23T05:10:28;99712.59;;;13.55;100.00
69257;BME280;56376;53.356;-1.748;2022-07-23T05:12:53;99712.59;;;13.55;100.00
69257;BME280;56376;53.356;-1.748;2022-07-23T05:15:19;99709.06;;;13.56;100.00
69257;BME280;56376;53.356;-1.748;2022-07-23T05:17:44;99718.56;;;13.59;100.00
69257;BME280;56376;53.356;-1.748;2022-07-23T05:20:10;99713.31;;;13.59;100.00
69257;BME280;56376;53.356;-1.748;2022-07-23T05:22:35;99719.41;;;13.59;100.00
69257;BME280;56376;53.356;-1.748;2022-07-23T05:25:01;99715.00;;;13.60;100.00
69257;BME280;56376;53.356;-1.748;2022-07-23T05:27:26;99714.88;;;13.63;100.00
69257;BME280;56376;53.356;-1.748;2022-07-23T05:29:52;99711.34;;;13.64;100.00
69257;BME280;56376;53.356;-1.748;2022-07-23T05:32:17;99709.56;;;13.64;100.00
69257;BME280;56376;53.356;-1.748;2022-07-23T05:34:42;99713.88;;;13.66;100.00
69257;BME280;56376;53.356;-1.748;2022-07-23T05:37:08;99718.22;;;13.67;100.00
69257;BME280;56376;53.356;-1.748;2022-07-23T05:39:33;99717.38;;;13.66;100.00
69257;BME280;56376;53.356;-1.748;2022-07-23T05:41:59;99717.44;;;13.64;100.00
69257;BME280;56376;53.356;-1.748;2022-07-23T05:44:24;99714.88;;;13.63;100.00
69257;BME280;56376;53.356;-1.748;2022-07-23T05:46:50;99716.72;;;13.61;100.00
69257;BME280;56376;53.356;-1.748;2022-07-23T05:49:15;99703.66;;;13.59;100.00
69257;BME280;56376;53.356;-1.748;2022-07-23T05:51:41;99705.34;;;13.60;100.00
69257;BME280;56376;53.356;-1.748;2022-07-23T05:54:06;99700.06;;;13.62;100.00
69257;BME280;56376;53.356;-1.748;2022-07-23T05:56:31;99700.84;;;13.64;100.00
69257;BME280;56376;53.356;-1.748;2022-07-23T05:58:57;99694.50;;;13.68;100.00
69257;BME280;56376;53.356;-1.748;2022-07-23T06:01:22;99698.69;;;13.72;100.00
69257;BME280;56376;53.356;-1.748;2022-07-23T06:03:48;99701.97;;;13.77;100.00
69257;BME280;56376;53.356;-1.748;2022-07-23T06:06:13;99705.22;;;13.82;100.00
69257;BME280;56376;53.356;-1.748;2022-07-23T06:08:39;99709.41;;;13.87;100.00
69257;BME280;56376;53.356;-1.748;2022-07-23T06:11:04;99705.66;;;13.92;100.00
69257;BME280;56376;53.356;-1.748;2022-07-23T06:13:30;99702.72;;;13.98;100.00
69257;BME280;56376;53.356;-1.748;2022-07-23T06:15:55;99701.50;;;14.05;100.00
69257;BME280;56376;53.356;-1.748;2022-07-23T06:18:21;99686.47;;;14.09;100.00
69257;BME280;56376;53.356;-1.748;2022-07-23T06:20:46;99693.13;;;14.16;100.00
69257;BME280;56376;53.356;-1.748;2022-07-23T06:23:11;99694.81;;;14.17;100.00
69257;BME280;56376;53.356;-1.748;2022-07-23T06:25:38;99698.22;;;14.19;100.00
69257;BME280;56376;53.356;-1.748;2022-07-23T06:28:03;99698.91;;;14.23;100.00
69257;BME280;56376;53.356;-1.748;2022-07-23T06:30:29;99696.28;;;14.23;100.00
69257;BME280;56376;53.356;-1.748;2022-07-23T06:32:54;99710.16;;;14.26;100.00
69257;BME280;56376;53.356;-1.748;2022-07-23T06:35:20;99702.31;;;14.25;100.00
69257;BME280;56376;53.356;-1.748;2022-07-23T06:37:45;99696.22;;;14.24;100.00
69257;BME280;56376;53.356;-1.748;2022-07-23T06:40:11;99702.31;;;14.25;100.00
69257;BME280;56376;53.356;-1.748;2022-07-23T06:42:38;99696.91;;;14.28;100.00
69257;BME280;56376;53.356;-1.748;2022-07-23T06:45:05;99692.38;;;14.32;100.00
69257;BME280;56376;53.356;-1.748;2022-07-23T06:47:31;99694.75;;;14.36;100.00
69257;BME280;56376;53.356;-1.748;2022-07-23T06:49:56;99705.16;;;14.39;100.00
69257;BME280;56376;53.356;-1.748;2022-07-23T06:52:22;99704.13;;;14.42;100.00
69257;BME280;56376;53.356;-1.748;2022-07-23T06:54:47;99702.13;;;14.47;100.00
69257;BME280;56376;53.356;-1.748;2022-07-23T06:57:13;99702.97;;;14.47;100.00
69257;BME280;56376;53.356;-1.748;2022-07-23T06:59:38;99705.53;;;14.49;100.00
69257;BME280;56376;53.356;-1.748;2022-07-23T07:02:06;99710.69;;;14.50;100.00
69257;BME280;56376;53.356;-1.748;2022-07-23T07:04:31;99694.88;;;14.52;100.00
69257;BME280;56376;53.356;-1.748;2022-07-23T07:06:57;99696.53;;;14.55;100.00
69257;BME280;56376;53.356;-1.748;2022-07-23T07:09:22;99698.16;;;14.57;100.00
69257;BME280;56376;53.356;-1.748;2022-07-23T07:11:48;99691.78;;;14.61;100.00
69257;BME280;56376;53.356;-1.748;2022-07-23T07:14:13;99687.94;;;14.68;100.00
69257;BME280;56376;53.356;-1.748;2022-07-23T07:16:39;99684.16;;;14.74;100.00
69257;BME280;56376;53.356;-1.748;2022-07-23T07:19:04;99692.50;;;14.82;100.00
69257;BME280;56376;53.356;-1.748;2022-07-23T07:21:30;99694.13;;;14.85;100.00
69257;BME280;56376;53.356;-1.748;2022-07-23T07:23:55;99691.34;;;14.88;100.00
69257;BME280;56376;53.356;-1.748;2022-07-23T07:26:21;99689.31;;;14.93;100.00
69257;BME280;56376;53.356;-1.748;2022-07-23T07:28:46;99690.88;;;14.97;100.00
69257;BME280;56376;53.356;-1.748;2022-07-23T07:31:12;99692.38;;;15.01;100.00
69257;BME280;56376;53.356;-1.748;2022-07-23T07:33:37;99688.75;;;15.04;100.00
69257;BME280;56376;53.356;-1.748;2022-07-23T07:36:03;99692.94;;;15.08;100.00
69257;BME280;56376;53.356;-1.748;2022-07-23T07:38:29;99698.03;;;15.11;100.00
69257;BME280;56376;53.356;-1.748;2022-07-23T07:40:54;99689.91;;;15.15;100.00
69257;BME280;56376;53.356;-1.748;2022-07-23T07:43:19;99694.91;;;15.20;100.00
69257;BME280;56376;53.356;-1.748;2022-07-23T07:45:45;99682.44;;;15.24;100.00
69257;BME280;56376;53.356;-1.748;2022-07-23T07:48:10;99683.22;;;15.26;99.33
69257;BME280;56376;53.356;-1.748;2022-07-23T07:50:36;99682.28;;;15.27;98.64
69257;BME280;56376;53.356;-1.748;2022-07-23T07:53:01;99682.88;;;15.32;98.15
69257;BME280;56376;53.356;-1.748;2022-07-23T07:55:27;99680.84;;;15.37;98.10
69257;BME280;56376;53.356;-1.748;2022-07-23T07:57:53;99688.44;;;15.43;97.54
69257;BME280;56376;53.356;-1.748;2022-07-23T08:00:19;99692.50;;;15.49;97.06
69257;BME280;56376;53.356;-1.748;2022-07-23T08:02:50;99685.22;;;15.54;96.64
69257;BME280;56376;53.356;-1.748;2022-07-23T08:05:19;99684.03;;;15.59;96.35
69257;BME280;56376;53.356;-1.748;2022-07-23T08:07:46;99681.25;;;15.63;96.39
69257;BME280;56376;53.356;-1.748;2022-07-23T08:10:11;99673.88;;;15.69;96.69
69257;BME280;56376;53.356;-1.748;2022-07-23T08:12:48;99681.44;;;15.75;97.23
69257;BME280;56376;53.356;-1.748;2022-07-23T08:15:17;99683.84;;;15.80;97.58
69257;BME280;56376;53.356;-1.748;2022-07-23T08:17:44;99681.78;;;15.85;97.76
69257;BME280;56376;53.356;-1.748;2022-07-23T08:20:11;99688.56;;;15.89;97.70
69257;BME280;56376;53.356;-1.748;2022-07-23T08:22:48;99682.22;;;15.93;97.26
69257;BME280;56376;53.356;-1.748;2022-07-23T08:25:16;99688.84;;;16.00;97.51
69257;BME280;56376;53.356;-1.748;2022-07-23T08:27:44;99680.50;;;16.08;97.57
69257;BME280;56376;53.356;-1.748;2022-07-23T08:30:12;99682.53;;;16.19;97.87
69257;BME280;56376;53.356;-1.748;2022-07-23T08:35:35;99673.28;;;16.42;96.77
69257;BME280;56376;53.356;-1.748;2022-07-23T08:38:03;99664.94;;;16.50;95.69
69257;BME280;56376;53.356;-1.748;2022-07-23T08:40:31;99654.94;;;16.55;95.50
69257;BME280;56376;53.356;-1.748;2022-07-23T08:42:57;99657.97;;;16.63;95.55
69257;BME280;56376;53.356;-1.748;2022-07-23T08:45:24;99655.00;;;16.69;95.48
69257;BME280;56376;53.356;-1.748;2022-07-23T08:47:55;99660.09;;;16.72;95.00
69257;BME280;56376;53.356;-1.748;2022-07-23T08:50:22;99659.06;;;16.75;95.18
69257;BME280;56376;53.356;-1.748;2022-07-23T08:52:49;99670.38;;;16.77;95.22
69257;BME280;56376;53.356;-1.748;2022-07-23T08:55:19;99658.13;;;16.76;95.91
69257;BME280;56376;53.356;-1.748;2022-07-23T08:57:50;99661.59;;;16.76;95.83
69257;BME280;56376;53.356;-1.748;2022-07-23T09:00:17;99658.22;;;16.74;95.70
69257;BME280;56376;53.356;-1.748;2022-07-23T09:02:44;99666.03;;;16.76;95.86
69257;BME280;56376;53.356;-1.748;2022-07-23T09:05:10;99662.41;;;16.78;96.04
69257;BME280;56376;53.356;-1.748;2022-07-23T09:07:37;99670.97;;;16.82;95.74
69257;BME280;56376;53.356;-1.748;2022-07-23T09:10:09;99670.88;;;16.83;95.33
69257;BME280;56376;53.356;-1.748;2022-07-23T09:12:35;99675.03;;;16.87;95.42
69257;BME280;56376;53.356;-1.748;2022-07-23T09:15:09;99671.28;;;16.92;94.22
69257;BME280;56376;53.356;-1.748;2022-07-23T09:17:40;99665.81;;;16.95;93.18
69257;BME280;56376;53.356;-1.748;2022-07-23T09:20:15;99669.84;;;17.00;92.21
69257;BME280;56376;53.356;-1.748;2022-07-23T09:22:47;99672.22;;;17.05;91.95
69257;BME280;56376;53.356;-1.748;2022-07-23T09:25:16;99675.41;;;17.10;91.44
69257;BME280;56376;53.356;-1.748;2022-07-23T09:30:22;99682.78;;;17.19;89.47
69257;BME280;56376;53.356;-1.748;2022-07-23T09:33:04;99681.63;;;17.23;88.82
69257;BME280;56376;53.356;-1.748;2022-07-23T09:36:02;99672.59;;;17.27;87.37
69257;BME280;56376;53.356;-1.748;2022-07-23T09:38:28;99668.94;;;17.30;86.62
69257;BME280;56376;53.356;-1.748;2022-07-23T09:41:10;99677.50;;;17.34;86.35
69257;BME280;56376;53.356;-1.748;2022-07-23T09:43:36;99677.50;;;17.34;85.71
69257;BME280;56376;53.356;-1.748;2022-07-23T09:46:24;99679.13;;;17.36;84.99
69257;BME280;56376;53.356;-1.748;2022-07-23T09:48:51;99675.53;;;17.37;84.71
69257;BME280;56376;53.356;-1.748;2022-07-23T09:51:17;99677.03;;;17.41;84.63
69257;BME280;56376;53.356;-1.748;2022-07-23T09:53:52;99671.38;;;17.47;84.80
69257;BME280;56376;53.356;-1.748;2022-07-23T09:56:20;99666.56;;;17.54;83.73
69257;BME280;56376;53.356;-1.748;2022-07-23T09:58:45;99656.44;;;17.61;83.33
69257;BME280;56376;53.356;-1.748;2022-07-23T10:01:15;99645.31;;;17.70;82.64
69257;BME280;56376;53.356;-1.748;2022-07-23T10:03:42;99655.38;;;17.78;82.14
69257;BME280;56376;53.356;-1.748;2022-07-23T10:06:10;99656.78;;;17.83;80.98
69257;BME280;56376;53.356;-1.748;2022-07-23T10:08:40;99658.41;;;17.86;80.69
69257;BME280;56376;53.356;-1.748;2022-07-23T10:11:07;99659.22;;;17.86;80.37
69257;BME280;56376;53.356;-1.748;2022-07-23T10:13:33;99659.06;;;17.89;79.98
69257;BME280;56376;53.356;-1.748;2022-07-23T10:15:59;99654.63;;;17.90;79.49
69257;BME280;56376;53.356;-1.748;2022-07-23T10:18:25;99664.91;;;17.94;78.69
69257;BME280;56376;53.356;-1.748;2022-07-23T10:20:50;99665.53;;;17.98;77.56
69257;BME280;56376;53.356;-1.748;2022-07-23T10:23:24;99655.50;;;18.03;77.87
69257;BME280;56376;53.356;-1.748;2022-07-23T10:26:00;99667.38;;;18.10;78.27
69257;BME280;56376;53.356;-1.748;2022-07-23T10:37:14;99658.34;;;18.27;76.67
69257;BME280;56376;53.356;-1.748;2022-07-23T10:39:46;99648.31;;;18.32;77.13
69257;BME280;56376;53.356;-1.748;2022-07-23T10:42:14;99647.28;;;18.35;76.59
69257;BME280;56376;53.356;-1.748;2022-07-23T10:47:08;99653.72;;;18.44;75.07
69257;BME280;56376;53.356;-1.748;2022-07-23T10:49:52;99641.25;;;18.46;74.48
69257;BME280;56376;53.356;-1.748;2022-07-23T10:52:23;99645.50;;;18.48;73.90
69257;BME280;56376;53.356;-1.748;2022-07-23T10:55:38;99659.47;;;18.50;72.96
69257;BME280;56376;53.356;-1.748;2022-07-23T10:57:53;99664.53;;;18.53;71.79
69257;BME280;56376;53.356;-1.748;2022-07-23T11:00:26;99652.16;;;18.54;71.66
69257;BME280;56376;53.356;-1.748;2022-07-23T11:02:55;99655.66;;;18.54;72.15
69257;BME280;56376;53.356;-1.748;2022-07-23T11:05:23;99647.84;;;18.53;71.34
69257;BME280;56376;53.356;-1.748;2022-07-23T11:10:52;99657.75;;;18.49;70.95
69257;BME280;56376;53.356;-1.748;2022-07-23T11:32:23;99656.66;;;18.39;69.71
69257;BME280;56376;53.356;-1.748;2022-07-23T11:34:50;99661.13;;;18.38;69.87
69257;BME280;56376;53.356;-1.748;2022-07-23T11:37:38;99657.63;;;18.38;70.35
69257;BME280;56376;53.356;-1.748;2022-07-23T11:40:08;99653.41;;;18.35;70.44
69257;BME280;56376;53.356;-1.748;2022-07-23T11:42:35;99649.16;;;18.33;71.86
69257;BME280;56376;53.356;-1.748;2022-07-23T11:45:01;99655.28;;;18.33;73.16
69257;BME280;56376;53.356;-1.748;2022-07-23T11:47:27;99649.16;;;18.33;73.83
69257;BME280;56376;53.356;-1.748;2022-07-23T11:50:00;99658.03;;;18.32;72.85
69257;BME280;56376;53.356;-1.748;2022-07-23T11:52:29;99655.50;;;18.30;71.86
69257;BME280;56376;53.356;-1.748;2022-07-23T11:54:55;99659.81;;;18.31;73.13
69257;BME280;56376;53.356;-1.748;2022-07-23T11:57:30;99653.50;;;18.34;74.40
69257;BME280;56376;53.356;-1.748;2022-07-23T11:59:58;99649.91;;;18.35;74.59
69257;BME280;56376;53.356;-1.748;2022-07-23T12:02:26;99656.03;;;18.35;75.07
69257;BME280;56376;53.356;-1.748;2022-07-23T12:04:52;99660.56;;;18.33;74.33
69257;BME280;56376;53.356;-1.748;2022-07-23T12:07:39;99660.66;;;18.32;73.85
69257;BME280;56376;53.356;-1.748;2022-07-23T12:10:29;99659.81;;;18.31;74.48
69257;BME280;56376;53.356;-1.748;2022-07-23T12:13:03;99649.25;;;18.31;74.64
69257;BME280;56376;53.356;-1.748;2022-07-23T12:15:40;99662.69;;;18.28;75.17
69257;BME280;56376;53.356;-1.748;2022-07-23T12:18:08;99658.34;;;18.27;76.47
69257;BME280;56376;53.356;-1.748;2022-07-23T12:20:36;99656.44;;;18.29;77.31
69257;BME280;56376;53.356;-1.748;2022-07-23T12:23:05;99661.84;;;18.28;77.88
69257;BME280;56376;53.356;-1.748;2022-07-23T12:25:33;99665.63;;;18.24;78.85
69257;BME280;56376;53.356;-1.748;2022-07-23T12:28:00;99656.94;;;18.22;79.66
69257;BME280;56376;53.356;-1.748;2022-07-23T12:30:30;99643.84;;;18.20;80.04
69257;BME280;56376;53.356;-1.748;2022-07-23T12:32:58;99655.34;;;18.19;81.10
69257;BME280;56376;53.356;-1.748;2022-07-23T12:35:30;99645.66;;;18.20;82.35
69257;BME280;56376;53.356;-1.748;2022-07-23T12:38:00;99639.59;;;18.17;82.08
69257;BME280;56376;53.356;-1.748;2022-07-23T12:40:48;99637.88;;;18.16;81.82
69257;BME280;56376;53.356;-1.748;2022-07-23T12:43:36;99634.19;;;18.19;81.23
69257;BME280;56376;53.356;-1.748;2022-07-23T12:46:12;99635.59;;;18.25;81.42
69257;BME280;56376;53.356;-1.748;2022-07-23T12:48:53;99641.22;;;18.33;81.24
69257;BME280;56376;53.356;-1.748;2022-07-23T12:51:21;99624.09;;;18.38;80.98
69257;BME280;56376;53.356;-1.748;2022-07-23T12:53:59;99625.69;;;18.41;79.84
69257;BME280;56376;53.356;-1.748;2022-07-23T12:56:29;99619.47;;;18.42;78.73
69257;BME280;56376;53.356;-1.748;2022-07-23T12:59:09;99618.72;;;18.40;78.25
69257;BME280;56376;53.356;-1.748;2022-07-23T13:01:45;99617.66;;;18.43;77.92
69257;BME280;56376;53.356;-1.748;2022-07-23T13:04:17;99612.47;;;18.41;77.23
69257;BME280;56376;53.356;-1.748;2022-07-23T13:06:47;99613.22;;;18.43;77.00
69257;BME280;56376;53.356;-1.748;2022-07-23T13:09:15;99622.66;;;18.47;77.32
69257;BME280;56376;53.356;-1.748;2022-07-23T13:11:41;99618.06;;;18.49;77.88
69257;BME280;56376;53.356;-1.748;2022-07-23T13:14:07;99614.50;;;18.50;77.96
69257;BME280;56376;53.356;-1.748;2022-07-23T13:16:33;99611.63;;;18.53;78.78
69257;BME280;56376;53.356;-1.748;2022-07-23T13:19:00;99610.69;;;18.54;78.69
69257;BME280;56376;53.356;-1.748;2022-07-23T13:21:27;99606.97;;;18.57;78.72
69257;BME280;56376;53.356;-1.748;2022-07-23T13:23:53;99596.22;;;18.60;78.90
69257;BME280;56376;53.356;-1.748;2022-07-23T13:26:18;99590.56;;;18.65;78.92